createdAt,value
2019-04-28T00:00:48.451Z,28.57
2019-04-28T00:03:20.785Z,28.70
2019-04-28T00:05:51.684Z,28.90
2019-04-28T00:08:22.275Z,27.07
2019-04-28T00:10:53.393Z,27.70
2019-04-28T00:13:24.285Z,27.47
2019-04-28T00:15:55.003Z,24.50
2019-04-28T00:18:25.789Z,34.33
2019-04-28T00:21:07.347Z,34.57
2019-04-28T00:23:51.708Z,36.40
2019-04-28T00:26:23.871Z,32.23
2019-04-28T00:28:54.578Z,26.40
2019-04-28T00:31:25.317Z,26.00
2019-04-28T00:33:55.941Z,34.30
2019-04-28T00:36:26.596Z,27.83
2019-04-28T00:38:57.316Z,34.00
2019-04-28T00:41:28.072Z,36.80
2019-04-28T00:43:58.806Z,32.43
2019-04-28T00:46:31.140Z,29.20
2019-04-28T00:49:02.218Z,37.43
2019-04-28T00:51:32.956Z,28.03
2019-04-28T00:54:03.576Z,32.33
2019-04-28T00:56:34.292Z,28.20
2019-04-28T00:59:04.896Z,27.57
2019-04-28T01:01:40.734Z,32.57
2019-04-28T01:04:12.350Z,26.00
2019-04-28T01:06:43.134Z,28.00
2019-04-28T01:09:13.895Z,25.23
2019-04-28T01:11:44.651Z,23.57
2019-04-28T01:14:15.382Z,20.60
2019-04-28T01:16:53.779Z,23.10
2019-04-28T01:19:30.136Z,25.13
2019-04-28T01:22:13.663Z,26.60
2019-04-28T01:24:44.352Z,23.10
2019-04-28T01:27:20.379Z,32.20
2019-04-28T01:29:52.877Z,25.33
2019-04-28T01:32:40.518Z,27.67
2019-04-28T01:35:11.322Z,25.60
2019-04-28T01:37:41.936Z,25.83
2019-04-28T01:40:12.779Z,22.77
2019-04-28T01:42:43.450Z,24.83
2019-04-28T01:45:14.648Z,22.13
2019-04-28T01:47:45.320Z,22.93
2019-04-28T01:50:16.161Z,20.30
2019-04-28T01:52:46.890Z,22.93
2019-04-28T01:55:17.594Z,26.20
2019-04-28T01:57:49.800Z,22.20
2019-04-28T02:00:25.265Z,22.50
2019-04-28T02:02:55.063Z,22.77
2019-04-28T02:05:25.742Z,17.10
2019-04-28T02:07:56.412Z,22.70
2019-04-28T02:10:27.033Z,17.93
2019-04-28T02:12:57.744Z,16.90
2019-04-28T02:15:30.198Z,15.47
2019-04-28T02:18:01.078Z,12.93
2019-04-28T02:20:31.762Z,12.63
2019-04-28T02:23:04.008Z,15.07
2019-04-28T02:25:34.807Z,16.30
2019-04-28T02:28:05.418Z,13.20
2019-04-28T02:30:45.372Z,16.50
2019-04-28T02:33:11.141Z,11.80
2019-04-28T02:35:42.339Z,15.93
2019-04-28T02:38:13.126Z,16.13
2019-04-28T02:40:43.905Z,14.00
2019-04-28T02:43:14.664Z,11.43
2019-04-28T02:45:46.236Z,12.90
2019-04-28T02:48:21.054Z,15.17
2019-04-28T02:50:52.807Z,14.07
2019-04-28T02:53:25.020Z,13.73
2019-04-28T02:55:55.679Z,14.20
2019-04-28T02:58:26.281Z,12.67
2019-04-28T03:01:06.209Z,14.87
2019-04-28T03:03:30.833Z,13.23
2019-04-28T03:06:01.861Z,12.00
2019-04-28T03:08:32.505Z,13.70
2019-04-28T03:11:03.096Z,13.43
2019-04-28T03:13:33.866Z,10.90
2019-04-28T03:16:04.754Z,19.37
2019-04-28T03:18:35.350Z,11.20
2019-04-28T03:21:06.091Z,11.33
2019-04-28T03:23:36.654Z,11.10
2019-04-28T03:26:17.738Z,15.40
2019-04-28T03:28:51.376Z,14.40
2019-04-28T03:32:04.070Z,15.23
2019-04-28T03:34:12.912Z,12.37
2019-04-28T03:36:44.177Z,10.73
2019-04-28T03:39:14.688Z,16.43
2019-04-28T03:41:45.412Z,13.40
2019-04-28T03:44:16.867Z,15.27
2019-04-28T03:46:51.220Z,11.57
2019-04-28T03:49:32.156Z,11.47
2019-04-28T03:52:06.707Z,14.60
2019-04-28T03:54:37.404Z,12.03
2019-04-28T03:57:11.123Z,13.90
2019-04-28T03:59:43.560Z,13.03
2019-04-28T04:02:13.698Z,11.03
2019-04-28T04:04:46.173Z,10.03
2019-04-28T04:07:17.222Z,15.13
2019-04-28T04:10:01.567Z,10.87
2019-04-28T04:12:46.226Z,14.83
2019-04-28T04:15:25.460Z,13.73
2019-04-28T04:18:06.908Z,15.23
2019-04-28T04:20:37.627Z,11.03
2019-04-28T04:23:11.076Z,9.90
2019-04-28T04:25:41.642Z,13.57
2019-04-28T04:28:12.566Z,15.43
2019-04-28T04:30:43.365Z,14.47
2019-04-28T04:33:14.063Z,14.87
2019-04-28T04:35:44.580Z,17.23
2019-04-28T04:38:15.339Z,13.80
2019-04-28T04:40:46.057Z,12.27
2019-04-28T04:43:16.739Z,16.60
2019-04-28T04:45:50.125Z,18.83
2019-04-28T04:48:21.569Z,13.37
2019-04-28T04:50:52.522Z,14.80
2019-04-28T04:53:23.473Z,16.33
2019-04-28T04:55:54.367Z,11.80
2019-04-28T04:58:24.984Z,15.60
2019-04-28T05:01:04.149Z,18.80
2019-04-28T05:03:39.775Z,18.70
2019-04-28T05:06:29.974Z,13.53
2019-04-28T05:09:00.588Z,14.67
2019-04-28T05:11:32.810Z,16.33
2019-04-28T05:14:07.551Z,18.13
2019-04-28T05:16:39.844Z,19.03
2019-04-28T05:19:10.773Z,14.03
2019-04-28T05:21:41.426Z,13.87
2019-04-28T05:24:25.939Z,19.07
2019-04-28T05:26:56.542Z,15.00
2019-04-28T05:29:28.128Z,18.90
2019-04-28T05:32:02.285Z,16.63
2019-04-28T05:34:31.189Z,15.37
2019-04-28T05:37:01.887Z,15.83
2019-04-28T05:39:32.437Z,16.30
2019-04-28T05:42:03.008Z,15.40
2019-04-28T05:44:33.812Z,15.93
2019-04-28T05:47:04.399Z,19.87
2019-04-28T05:49:36.687Z,17.87
2019-04-28T05:52:25.421Z,15.23
2019-04-28T05:54:57.649Z,19.63
2019-04-28T05:57:35.573Z,16.50
2019-04-28T06:00:11.265Z,16.43
2019-04-28T06:02:55.492Z,19.50
2019-04-28T06:05:20.008Z,18.70
2019-04-28T06:07:52.259Z,21.70
2019-04-28T06:10:23.418Z,17.70
2019-04-28T06:12:54.166Z,17.13
2019-04-28T06:15:26.308Z,16.13
2019-04-28T06:17:56.899Z,17.60
2019-04-28T06:20:27.610Z,18.70
2019-04-28T06:22:58.333Z,16.57
2019-04-28T06:25:29.234Z,20.23
2019-04-28T06:27:59.968Z,23.83
2019-04-28T06:30:30.669Z,20.87
2019-04-28T06:33:08.206Z,16.27
2019-04-28T06:35:34.165Z,21.53
2019-04-28T06:38:04.799Z,17.20
2019-04-28T06:40:35.454Z,23.23
2019-04-28T06:43:06.045Z,22.80
2019-04-28T06:45:36.747Z,24.73
2019-04-28T06:48:07.490Z,21.07
2019-04-28T06:50:38.229Z,22.10
2019-04-28T06:53:09.445Z,23.57
2019-04-28T06:55:40.098Z,20.17
2019-04-28T06:58:10.684Z,28.83
2019-04-28T07:00:41.477Z,23.90
2019-04-28T07:03:22.706Z,24.27
2019-04-28T07:05:44.896Z,26.50
2019-04-28T07:08:15.705Z,26.00
2019-04-28T07:10:46.375Z,29.30
2019-04-28T07:13:17.092Z,26.97
2019-04-28T07:15:47.693Z,22.20
2019-04-28T07:18:18.596Z,24.60
2019-04-28T07:21:00.400Z,26.60
2019-04-28T07:23:32.166Z,22.43
2019-04-28T07:26:02.816Z,27.30
2019-04-28T07:28:33.909Z,28.63
2019-04-28T07:31:04.724Z,22.80
2019-04-28T07:33:36.357Z,24.07
2019-04-28T07:36:07.190Z,23.07
2019-04-28T07:38:37.924Z,25.90
2019-04-28T07:41:08.599Z,23.30
2019-04-28T07:43:39.298Z,20.67
2019-04-28T07:46:10.015Z,21.77
2019-04-28T07:48:40.683Z,20.93
2019-04-28T07:51:11.392Z,18.23
2019-04-28T07:53:46.861Z,18.80
2019-04-28T07:56:19.083Z,13.00
2019-04-28T07:58:49.713Z,12.13
2019-04-28T08:01:25.784Z,14.67
2019-04-28T08:03:57.620Z,9.87
2019-04-28T08:06:28.612Z,9.93
2019-04-28T08:09:02.297Z,7.80
2019-04-28T08:11:33.288Z,12.37
2019-04-28T08:14:04.229Z,15.93
2019-04-28T08:16:36.143Z,13.00
2019-04-28T08:19:06.661Z,8.83
2019-04-28T08:21:37.375Z,8.60
2019-04-28T08:24:07.954Z,9.03
2019-04-28T08:26:38.669Z,10.07
2019-04-28T08:29:09.262Z,10.90
2019-04-28T08:31:47.621Z,16.87
2019-04-28T08:34:21.005Z,14.30
2019-04-28T08:36:51.752Z,10.67
2019-04-28T08:39:25.072Z,7.13
2019-04-28T08:41:54.836Z,8.63
2019-04-28T08:44:25.443Z,8.27
2019-04-28T08:46:57.012Z,9.90
2019-04-28T08:49:35.161Z,8.43
2019-04-28T08:52:05.857Z,20.70
2019-04-28T08:54:36.466Z,6.40
2019-04-28T08:57:10.161Z,8.63
2019-04-28T08:59:40.822Z,7.77
2019-04-28T09:02:11.664Z,6.27
2019-04-28T09:04:42.274Z,11.33
2019-04-28T09:07:13.047Z,6.10
2019-04-28T09:09:43.795Z,8.43
2019-04-28T09:12:14.491Z,7.30
2019-04-28T09:14:45.097Z,6.93
2019-04-28T09:17:15.785Z,7.10
2019-04-28T09:19:46.391Z,6.23
2019-04-28T09:22:18.202Z,8.40
2019-04-28T09:24:48.937Z,9.77
2019-04-28T09:27:19.616Z,7.83
2019-04-28T09:29:50.184Z,5.37
2019-04-28T09:32:20.904Z,5.27
2019-04-28T09:34:56.229Z,6.97
2019-04-28T09:37:28.507Z,8.03
2019-04-28T09:41:14.506Z,5.00
2019-04-28T09:43:05.526Z,7.50
2019-04-28T09:45:37.687Z,5.60
2019-04-28T09:48:08.413Z,5.10
2019-04-28T09:50:39.132Z,5.47
2019-04-28T09:53:09.870Z,7.37
2019-04-28T09:55:40.685Z,9.93
2019-04-28T09:58:13.298Z,7.53
2019-04-28T10:00:44.001Z,8.43
2019-04-28T10:03:14.762Z,8.33
2019-04-28T10:05:46.068Z,6.93
2019-04-28T10:08:16.738Z,6.07
2019-04-28T10:10:47.434Z,6.27
2019-04-28T10:13:17.998Z,9.70
2019-04-28T10:15:48.793Z,9.93
2019-04-28T10:18:19.448Z,10.57
2019-04-28T10:20:50.189Z,5.83
2019-04-28T10:23:21.010Z,5.10
2019-04-28T10:25:51.630Z,9.80
2019-04-28T10:28:22.285Z,9.30
2019-04-28T10:30:52.895Z,7.87
2019-04-28T10:33:23.672Z,11.03
2019-04-28T10:35:54.358Z,13.13
2019-04-28T10:38:25.059Z,9.53
2019-04-28T10:40:57.200Z,14.80
2019-04-28T10:43:27.917Z,6.73
2019-04-28T10:45:58.782Z,8.43
2019-04-28T10:48:29.423Z,9.73
2019-04-28T10:51:01.301Z,7.27
2019-04-28T10:53:32.010Z,9.47
2019-04-28T10:56:02.594Z,7.20
2019-04-28T10:58:33.258Z,10.47
2019-04-28T11:01:03.967Z,13.83
2019-04-28T11:03:34.798Z,8.70
2019-04-28T11:06:05.409Z,9.67
2019-04-28T11:08:43.336Z,14.13
2019-04-28T11:11:15.564Z,7.77
2019-04-28T11:13:46.230Z,9.83
2019-04-28T11:16:18.407Z,11.30
2019-04-28T11:18:48.973Z,9.20
2019-04-28T11:21:19.658Z,12.60
2019-04-28T11:23:51.772Z,10.70
2019-04-28T11:26:26.607Z,9.90
2019-04-28T11:28:57.593Z,11.67
2019-04-28T11:31:28.304Z,10.97
2019-04-28T11:34:06.937Z,11.97
2019-04-28T11:36:37.874Z,9.13
2019-04-28T11:39:10.043Z,11.43
2019-04-28T11:41:40.711Z,11.33
2019-04-28T11:44:11.619Z,12.47
2019-04-28T11:46:42.266Z,12.80
2019-04-28T11:49:13.292Z,12.00
2019-04-28T11:51:43.936Z,9.07
2019-04-28T11:54:14.554Z,11.60
2019-04-28T11:56:45.166Z,13.13
2019-04-28T11:59:16.237Z,10.17
2019-04-28T12:01:47.092Z,13.60
2019-04-28T12:04:19.016Z,11.80
2019-04-28T12:06:50.654Z,16.10
2019-04-28T12:09:22.978Z,16.07
2019-04-28T12:11:55.350Z,13.93
2019-04-28T12:14:30.347Z,12.57
2019-04-28T12:17:02.575Z,11.50
2019-04-28T12:19:44.231Z,13.57
2019-04-28T12:22:15.024Z,10.30
2019-04-28T12:24:45.630Z,12.83
2019-04-28T12:27:16.354Z,8.97
2019-04-28T12:29:47.044Z,14.27
2019-04-28T12:32:17.702Z,12.17
2019-04-28T12:34:48.475Z,7.27
2019-04-28T12:37:19.137Z,10.73
2019-04-28T12:39:51.248Z,8.80
2019-04-28T12:42:21.858Z,17.40
2019-04-28T12:44:52.464Z,11.83
2019-04-28T12:47:23.112Z,12.20
2019-04-28T12:49:55.527Z,14.67
2019-04-28T12:52:26.200Z,11.50
2019-04-28T12:54:56.894Z,13.87
2019-04-28T12:57:27.526Z,20.47
2019-04-28T12:59:59.699Z,23.10
2019-04-28T13:02:31.878Z,22.20
2019-04-28T13:05:06.759Z,24.37
2019-04-28T13:07:38.809Z,20.20
2019-04-28T13:10:10.389Z,30.83
2019-04-28T13:12:41.210Z,40.57
2019-04-28T13:15:11.931Z,21.77
2019-04-28T13:17:44.131Z,24.70
2019-04-28T13:20:14.934Z,26.27
2019-04-28T13:22:45.517Z,37.67
2019-04-28T13:25:16.242Z,27.67
2019-04-28T13:27:47.104Z,25.30
2019-04-28T13:30:19.657Z,23.80
2019-04-28T13:32:50.344Z,22.40
2019-04-28T13:35:20.967Z,17.80
2019-04-28T13:37:51.635Z,18.10
2019-04-28T13:40:26.662Z,17.97
2019-04-28T13:42:57.281Z,19.37
2019-04-28T13:45:29.627Z,18.37
2019-04-28T13:48:00.268Z,18.80
2019-04-28T13:50:32.583Z,23.03
2019-04-28T13:53:03.229Z,70.27
2019-04-28T13:55:38.482Z,24.47
2019-04-28T13:58:10.233Z,20.67
2019-04-28T14:00:57.661Z,31.60
2019-04-28T14:03:29.924Z,21.73
2019-04-28T14:06:05.282Z,23.17
2019-04-28T14:08:36.190Z,21.07
2019-04-28T14:11:06.795Z,22.63
2019-04-28T14:13:37.515Z,22.57
2019-04-28T14:16:08.173Z,29.17
2019-04-28T14:18:38.918Z,24.37
2019-04-28T14:21:09.511Z,19.53
2019-04-28T14:23:40.212Z,20.60
2019-04-28T14:26:11.042Z,28.07
2019-04-28T14:28:41.755Z,20.83
2019-04-28T14:31:12.595Z,21.80
2019-04-28T14:33:43.427Z,20.53
2019-04-28T14:36:17.025Z,23.77
2019-04-28T14:38:47.763Z,28.80
2019-04-28T14:41:18.576Z,23.37
2019-04-28T14:43:49.216Z,23.23
2019-04-28T14:46:19.812Z,22.73
2019-04-28T14:48:50.569Z,25.50
2019-04-28T14:51:21.338Z,31.33
2019-04-28T14:53:51.995Z,31.57
2019-04-28T14:56:22.761Z,35.50
2019-04-28T14:58:53.508Z,24.47
2019-04-28T15:01:37.903Z,27.33
2019-04-28T15:04:20.862Z,30.27
2019-04-28T15:07:09.412Z,28.97
2019-04-28T15:09:59.859Z,32.50
2019-04-28T15:12:30.594Z,34.27
2019-04-28T15:15:01.372Z,31.47
2019-04-28T15:17:32.033Z,27.23
2019-04-28T15:20:02.831Z,25.97
2019-04-28T15:22:33.710Z,28.20
2019-04-28T15:25:05.214Z,29.97
2019-04-28T15:27:35.800Z,29.43
2019-04-28T15:30:08.407Z,31.60
2019-04-28T15:32:41.790Z,34.03
2019-04-28T15:35:13.965Z,28.13
2019-04-28T15:37:44.958Z,29.80
2019-04-28T15:40:16.656Z,29.37
2019-04-28T15:42:47.405Z,29.27
2019-04-28T15:45:18.344Z,31.37
2019-04-28T15:47:48.999Z,30.53
2019-04-28T15:50:19.653Z,35.50
2019-04-28T15:52:50.402Z,36.87
2019-04-28T15:55:22.617Z,31.70
2019-04-28T15:57:53.389Z,27.37
2019-04-28T16:00:24.025Z,29.90
2019-04-28T16:02:55.008Z,29.13
2019-04-28T16:05:25.669Z,27.77
2019-04-28T16:07:56.301Z,30.50
2019-04-28T16:10:27.202Z,29.17
2019-04-28T16:12:57.948Z,30.17
2019-04-28T16:15:28.578Z,30.00
2019-04-28T16:17:59.678Z,26.93
2019-04-28T16:20:30.289Z,28.27
2019-04-28T16:23:01.127Z,31.27
2019-04-28T16:25:31.973Z,28.97
2019-04-28T16:28:02.704Z,27.87
2019-04-28T16:30:33.460Z,29.53
2019-04-28T16:33:04.375Z,30.30
2019-04-28T16:35:36.760Z,32.03
2019-04-28T16:38:07.469Z,33.00
2019-04-28T16:40:46.165Z,30.80
2019-04-28T16:43:27.127Z,30.33
2019-04-28T16:45:57.806Z,28.63
2019-04-28T16:48:29.127Z,25.03
2019-04-28T16:51:01.483Z,26.70
2019-04-28T16:53:32.235Z,30.23
2019-04-28T16:56:08.446Z,30.47
2019-04-28T16:58:57.980Z,31.27
2019-04-28T17:01:36.185Z,28.50
2019-04-28T17:04:06.970Z,28.13
2019-04-28T17:06:37.570Z,26.17
2019-04-28T17:09:08.381Z,26.70
2019-04-28T17:11:39.124Z,26.97
2019-04-28T17:14:09.769Z,28.90
2019-04-28T17:16:40.438Z,25.70
2019-04-28T17:19:12.319Z,29.90
2019-04-28T17:21:44.112Z,26.53
2019-04-28T17:24:14.789Z,31.47
2019-04-28T17:26:46.317Z,30.73
2019-04-28T17:29:19.661Z,32.13
2019-04-28T17:31:50.398Z,29.97
2019-04-28T17:34:21.051Z,32.10
2019-04-28T17:36:51.680Z,31.00
2019-04-28T17:39:24.074Z,29.17
2019-04-28T17:41:54.795Z,28.10
2019-04-28T17:44:28.435Z,32.43
2019-04-28T17:47:02.449Z,31.43
2019-04-28T17:49:37.460Z,26.10
2019-04-28T17:52:09.318Z,31.47
2019-04-28T17:54:40.315Z,30.97
2019-04-28T17:57:11.174Z,28.90
2019-04-28T17:59:47.076Z,29.60
2019-04-28T18:02:23.615Z,32.97
2019-04-28T18:04:59.010Z,21.60
2019-04-28T18:07:31.523Z,26.60
2019-04-28T18:10:02.252Z,24.43
2019-04-28T18:12:32.973Z,25.80
2019-04-28T18:15:06.574Z,29.77
2019-04-28T18:17:41.904Z,25.63
2019-04-28T18:20:12.911Z,32.33
2019-04-28T18:22:43.635Z,25.40
2019-04-28T18:25:15.717Z,26.27
2019-04-28T18:27:47.740Z,25.03
2019-04-28T18:30:20.645Z,26.03
2019-04-28T18:33:01.665Z,27.33
2019-04-28T18:35:33.881Z,23.63
2019-04-28T18:38:08.758Z,28.90
2019-04-28T18:40:41.044Z,25.40
2019-04-28T18:43:19.542Z,24.47
2019-04-28T18:45:50.412Z,28.33
2019-04-28T18:48:22.760Z,33.80
2019-04-28T18:50:53.630Z,25.03
2019-04-28T18:53:24.387Z,27.07
2019-04-28T18:55:54.973Z,29.30
2019-04-28T18:58:25.558Z,25.90
2019-04-28T19:01:03.805Z,22.90
2019-04-28T19:03:34.486Z,27.87
2019-04-28T19:06:06.746Z,27.07
2019-04-28T19:08:48.866Z,20.50
2019-04-28T19:11:15.508Z,22.00
2019-04-28T19:13:50.743Z,21.37
2019-04-28T19:16:32.118Z,21.23
2019-04-28T19:19:07.499Z,26.57
2019-04-28T19:21:38.637Z,26.47
2019-04-28T19:24:09.488Z,20.30
2019-04-28T19:26:40.396Z,17.80
2019-04-28T19:29:11.149Z,20.23
2019-04-28T19:31:43.471Z,14.53
2019-04-28T19:34:14.201Z,15.60
2019-04-28T19:36:44.813Z,17.03
2019-04-28T19:39:15.433Z,15.30
2019-04-28T19:41:46.169Z,15.83
2019-04-28T19:44:16.964Z,19.93
2019-04-28T19:46:47.916Z,18.60
2019-04-28T19:49:18.789Z,22.27
2019-04-28T19:51:49.465Z,14.70
2019-04-28T19:54:21.716Z,15.77
2019-04-28T19:57:00.011Z,16.43
2019-04-28T19:59:38.539Z,17.73
2019-04-28T20:02:09.221Z,17.33
2019-04-28T20:04:39.988Z,16.63
2019-04-28T20:07:10.740Z,19.57
2019-04-28T20:09:41.400Z,24.27
2019-04-28T20:12:12.121Z,17.33
2019-04-28T20:14:42.806Z,20.73
2019-04-28T20:17:13.436Z,21.43
2019-04-28T20:19:44.213Z,22.03
2019-04-28T20:22:14.917Z,15.67
2019-04-28T20:24:47.224Z,16.77
2019-04-28T20:27:17.978Z,18.33
2019-04-28T20:29:48.611Z,17.60
2019-04-28T20:32:19.303Z,20.60
2019-04-28T20:34:50.010Z,15.97
2019-04-28T20:37:22.275Z,14.97
2019-04-28T20:40:06.647Z,13.03
2019-04-28T20:42:54.388Z,16.37
2019-04-28T20:45:27.664Z,15.43
2019-04-28T20:47:58.321Z,17.30
2019-04-28T20:50:29.123Z,12.73
2019-04-28T20:52:59.919Z,14.00
2019-04-28T20:55:32.293Z,13.87
2019-04-28T20:58:02.894Z,15.07
2019-04-28T21:00:33.721Z,14.80
2019-04-28T21:03:04.663Z,13.83
2019-04-28T21:05:35.252Z,13.80
2019-04-28T21:08:05.859Z,11.87
2019-04-28T21:10:38.083Z,16.20
2019-04-28T21:13:09.069Z,14.00
2019-04-28T21:15:39.985Z,13.30
2019-04-28T21:18:10.747Z,15.30
2019-04-28T21:20:41.514Z,13.90
2019-04-28T21:23:12.252Z,14.30
2019-04-28T21:25:42.992Z,12.63
2019-04-28T21:28:13.745Z,10.73
2019-04-28T21:30:44.475Z,11.87
2019-04-28T21:33:15.090Z,17.70
2019-04-28T21:35:46.195Z,13.77
2019-04-28T21:38:16.840Z,12.50
2019-04-28T21:40:47.493Z,16.73
2019-04-28T21:43:22.540Z,13.90
2019-04-28T21:46:00.942Z,12.47
2019-04-28T21:48:33.133Z,13.60
2019-04-28T21:51:03.972Z,12.40
2019-04-28T21:53:34.878Z,13.53
2019-04-28T21:56:05.813Z,13.33
2019-04-28T21:58:36.449Z,12.43
2019-04-28T22:01:08.788Z,12.23
2019-04-28T22:03:39.482Z,12.90
2019-04-28T22:06:11.848Z,12.13
2019-04-28T22:08:42.798Z,14.07
2019-04-28T22:11:13.374Z,12.87
2019-04-28T22:13:44.185Z,15.50
2019-04-28T22:16:14.881Z,15.00
2019-04-28T22:18:45.605Z,13.70
2019-04-28T22:21:16.366Z,12.80
2019-04-28T22:23:48.678Z,15.73
2019-04-28T22:26:20.813Z,16.13
2019-04-28T22:28:51.499Z,13.13
2019-04-28T22:31:22.126Z,10.67
2019-04-28T22:33:52.872Z,14.63
2019-04-28T22:36:23.471Z,12.90
2019-04-28T22:38:54.067Z,14.70
2019-04-28T22:41:24.868Z,14.23
2019-04-28T22:43:56.330Z,12.83
2019-04-28T22:46:27.152Z,12.10
2019-04-28T22:48:59.331Z,12.30
2019-04-28T22:51:30.049Z,16.97
2019-04-28T22:54:03.593Z,13.93
2019-04-28T22:56:35.860Z,14.17
2019-04-28T22:59:08.273Z,12.87
2019-04-28T23:01:40.632Z,15.37
2019-04-28T23:04:15.795Z,15.53
2019-04-28T23:06:46.531Z,11.30
2019-04-28T23:09:18.897Z,13.37
2019-04-28T23:11:49.511Z,11.37
2019-04-28T23:14:20.230Z,13.90
2019-04-28T23:16:51.024Z,14.47
2019-04-28T23:19:23.176Z,14.50
2019-04-28T23:22:14.282Z,17.40
2019-04-28T23:24:44.921Z,13.73
2019-04-28T23:27:15.485Z,12.87
2019-04-28T23:29:46.171Z,13.63
2019-04-28T23:32:16.879Z,9.33
2019-04-28T23:34:47.471Z,12.87
2019-04-28T23:37:18.196Z,14.13
2019-04-28T23:39:48.804Z,13.03
2019-04-28T23:42:25.661Z,14.43
2019-04-28T23:44:56.501Z,10.20
2019-04-28T23:47:27.279Z,13.93
2019-04-28T23:49:57.972Z,11.60
2019-04-28T23:52:30.136Z,10.87
2019-04-28T23:55:02.355Z,12.63
2019-04-28T23:57:33.552Z,9.57
